createdAt,value
2018-07-01T00:01:08.204Z,44.80
2018-07-01T00:03:36.722Z,44.90
2018-07-01T00:06:05.228Z,45.10
2018-07-01T00:11:01.891Z,45.90
2018-07-01T00:13:30.339Z,46.20
2018-07-01T00:15:58.835Z,47.00
2018-07-01T00:18:27.275Z,46.20
2018-07-01T00:20:55.870Z,46.70
2018-07-01T00:23:24.278Z,46.60
2018-07-01T00:25:52.671Z,46.70
2018-07-01T00:30:49.359Z,46.90
2018-07-01T00:33:17.930Z,47.00
2018-07-01T00:35:46.377Z,47.40
2018-07-01T00:38:14.803Z,47.30
2018-07-01T00:40:43.240Z,47.80
2018-07-01T00:43:11.715Z,47.60
2018-07-01T00:45:40.131Z,48.80
2018-07-01T00:48:08.650Z,48.60
2018-07-01T00:50:37.069Z,48.40
2018-07-01T00:55:33.583Z,49.00
2018-07-01T00:58:02.026Z,49.20
2018-07-01T01:00:31.451Z,49.20
2018-07-01T01:03:00.503Z,49.90
2018-07-01T01:05:28.906Z,50.60
2018-07-01T01:07:58.079Z,49.70
2018-07-01T01:12:56.478Z,50.20
2018-07-01T01:17:53.074Z,50.90
2018-07-01T01:20:21.568Z,51.00
2018-07-01T01:22:50.040Z,51.40
2018-07-01T01:25:18.513Z,51.30
2018-07-01T01:27:47.011Z,51.20
2018-07-01T01:30:15.471Z,51.60
2018-07-01T01:32:43.995Z,51.80
2018-07-01T01:35:12.474Z,51.80
2018-07-01T01:37:40.991Z,51.80
2018-07-01T01:42:44.262Z,51.80
2018-07-01T01:45:49.160Z,52.20
2018-07-01T01:48:26.841Z,52.40
2018-07-01T01:51:05.363Z,52.70
2018-07-01T01:54:12.279Z,52.50
2018-07-01T01:56:44.939Z,52.50
2018-07-01T01:59:18.839Z,52.80
2018-07-01T02:01:59.113Z,52.70
2018-07-01T02:04:30.903Z,52.50
2018-07-01T02:07:02.907Z,53.10
2018-07-01T02:09:33.567Z,52.80
2018-07-01T02:12:03.263Z,52.90
2018-07-01T02:14:54.295Z,53.10
2018-07-01T02:17:28.793Z,53.00
2018-07-01T02:19:57.303Z,52.90
2018-07-01T02:22:31.913Z,52.80
2018-07-01T02:25:01.863Z,53.10
2018-07-01T02:27:30.341Z,53.60
2018-07-01T02:29:58.837Z,53.50
2018-07-01T02:32:27.283Z,53.90
2018-07-01T02:34:55.731Z,53.90
2018-07-01T02:37:24.151Z,54.20
2018-07-01T02:39:52.619Z,54.10
2018-07-01T02:42:21.051Z,54.30
2018-07-01T02:44:49.517Z,55.00
2018-07-01T02:47:17.951Z,54.70
2018-07-01T02:49:46.406Z,55.00
2018-07-01T02:52:14.853Z,54.20
2018-07-01T02:54:43.311Z,54.70
2018-07-01T02:57:11.762Z,54.60
2018-07-01T02:59:40.220Z,54.30
2018-07-01T03:02:08.649Z,54.60
2018-07-01T03:04:37.096Z,54.40
2018-07-01T03:09:33.670Z,54.40
2018-07-01T03:12:02.094Z,54.90
2018-07-01T03:14:30.571Z,55.00
2018-07-01T03:16:59.003Z,55.00
2018-07-01T03:19:27.477Z,55.00
2018-07-01T03:21:55.935Z,55.00
2018-07-01T03:24:24.376Z,55.00
2018-07-01T03:26:52.899Z,55.00
2018-07-01T03:29:21.408Z,55.00
2018-07-01T03:31:49.855Z,54.90
2018-07-01T03:34:18.295Z,55.00
2018-07-01T03:36:46.750Z,54.80
2018-07-01T03:39:15.209Z,54.80
2018-07-01T03:41:43.669Z,55.70
2018-07-01T03:44:12.108Z,55.50
2018-07-01T03:46:40.550Z,55.30
2018-07-01T03:49:08.959Z,55.10
2018-07-01T03:51:37.411Z,54.50
2018-07-01T03:54:05.998Z,53.90
2018-07-01T03:56:34.594Z,53.30
2018-07-01T03:59:03.099Z,52.40
2018-07-01T04:01:31.563Z,52.00
2018-07-01T04:04:00.035Z,52.00
2018-07-01T04:08:56.581Z,51.50
2018-07-01T04:11:25.070Z,51.40
2018-07-01T04:16:21.681Z,50.80
2018-07-01T04:18:50.098Z,50.90
2018-07-01T04:21:18.525Z,50.50
2018-07-01T04:23:46.931Z,51.00
2018-07-01T04:26:15.368Z,50.70
2018-07-01T04:28:43.764Z,50.70
2018-07-01T04:31:12.247Z,50.10
2018-07-01T04:33:40.649Z,50.60
2018-07-01T04:36:09.087Z,49.30
2018-07-01T04:38:37.507Z,50.00
2018-07-01T04:41:06.022Z,49.20
2018-07-01T04:43:34.429Z,49.20
2018-07-01T04:46:02.894Z,49.30
2018-07-01T04:48:31.314Z,49.30
2018-07-01T04:50:59.734Z,49.50
2018-07-01T04:53:28.175Z,49.50
2018-07-01T04:55:56.599Z,49.50
2018-07-01T04:58:25.031Z,49.40
2018-07-01T05:00:53.447Z,49.30
2018-07-01T05:03:21.889Z,49.20
2018-07-01T05:05:50.390Z,50.20
2018-07-01T05:08:18.827Z,49.50
2018-07-01T05:10:47.589Z,49.20
2018-07-01T05:13:16.047Z,49.30
2018-07-01T05:15:44.510Z,49.30
2018-07-01T05:18:12.955Z,48.90
2018-07-01T05:20:41.472Z,49.40
2018-07-01T05:23:09.944Z,48.90
2018-07-01T05:25:38.350Z,49.30
2018-07-01T05:28:06.846Z,49.30
2018-07-01T05:30:35.287Z,48.50
2018-07-01T05:33:03.789Z,49.40
2018-07-01T05:35:32.235Z,49.20
2018-07-01T05:38:00.683Z,49.10
2018-07-01T05:40:29.263Z,49.00
2018-07-01T05:42:57.711Z,48.60
2018-07-01T05:45:26.137Z,49.10
2018-07-01T05:50:23.443Z,48.90
2018-07-01T05:52:51.906Z,47.90
2018-07-01T05:55:20.358Z,48.50
2018-07-01T05:57:48.799Z,49.20
2018-07-01T06:00:17.275Z,48.10
2018-07-01T06:02:45.746Z,47.80
2018-07-01T06:05:14.187Z,47.10
2018-07-01T06:07:42.637Z,46.30
2018-07-01T06:10:11.088Z,46.50
2018-07-01T06:12:39.553Z,46.50
2018-07-01T06:15:08.044Z,46.00
2018-07-01T06:17:36.530Z,46.20
2018-07-01T06:20:05.143Z,46.80
2018-07-01T06:22:33.579Z,46.60
2018-07-01T06:25:02.052Z,47.20
2018-07-01T06:27:30.486Z,47.00
2018-07-01T06:29:58.986Z,47.70
2018-07-01T06:32:27.443Z,47.50
2018-07-01T06:34:55.871Z,47.00
2018-07-01T06:39:52.453Z,47.50
2018-07-01T06:42:20.891Z,48.30
2018-07-01T06:44:49.362Z,48.10
2018-07-01T06:47:17.751Z,48.10
2018-07-01T06:49:46.170Z,48.20
2018-07-01T06:52:14.572Z,48.20
2018-07-01T06:54:42.979Z,46.90
2018-07-01T06:57:11.403Z,46.90
2018-07-01T06:59:39.819Z,46.80
2018-07-01T07:02:08.239Z,47.30
2018-07-01T07:04:36.654Z,47.60
2018-07-01T07:07:05.290Z,48.30
2018-07-01T07:09:33.718Z,48.20
2018-07-01T07:12:02.147Z,48.50
2018-07-01T07:14:30.607Z,47.80
2018-07-01T07:16:59.061Z,46.60
2018-07-01T07:19:27.529Z,47.20
2018-07-01T07:21:55.958Z,46.90
2018-07-01T07:24:24.405Z,46.40
2018-07-01T07:26:52.831Z,46.40
2018-07-01T07:29:21.269Z,46.80
2018-07-01T07:31:49.674Z,46.20
2018-07-01T07:34:18.098Z,46.50
2018-07-01T07:36:46.566Z,46.70
2018-07-01T07:39:15.009Z,46.30
2018-07-01T07:41:43.717Z,46.90
2018-07-01T07:46:40.303Z,47.00
2018-07-01T07:51:36.835Z,47.10
2018-07-01T07:54:05.277Z,46.70
2018-07-01T07:56:33.738Z,47.00
2018-07-01T07:59:02.236Z,46.60
2018-07-01T08:01:30.675Z,45.50
2018-07-01T08:06:27.235Z,46.10
2018-07-01T08:11:23.819Z,46.10
2018-07-01T08:13:52.458Z,45.70
2018-07-01T08:16:20.942Z,45.60
2018-07-01T08:21:17.724Z,45.40
2018-07-01T08:23:46.167Z,45.30
2018-07-01T08:26:14.633Z,45.00
2018-07-01T08:28:43.048Z,44.40
2018-07-01T08:33:39.624Z,43.70
2018-07-01T08:36:08.076Z,43.90
2018-07-01T08:38:36.550Z,43.80
2018-07-01T08:41:04.999Z,44.30
2018-07-01T08:43:33.426Z,44.00
2018-07-01T08:48:29.974Z,43.70
2018-07-01T08:53:26.520Z,43.40
2018-07-01T08:55:54.951Z,43.70
2018-07-01T08:58:23.370Z,42.90
2018-07-01T09:00:51.815Z,42.80
2018-07-01T09:03:20.223Z,42.90
2018-07-01T09:05:48.700Z,43.50
2018-07-01T09:08:17.102Z,42.40
2018-07-01T09:10:45.539Z,42.00
2018-07-01T09:13:13.959Z,42.10
2018-07-01T09:15:42.414Z,41.90
2018-07-01T09:18:10.878Z,41.10
2018-07-01T09:20:39.347Z,42.70
2018-07-01T09:23:07.794Z,41.40
2018-07-01T09:25:36.224Z,40.60
2018-07-01T09:28:04.810Z,40.70
2018-07-01T09:30:33.265Z,41.00
2018-07-01T09:33:01.720Z,40.80
2018-07-01T09:35:30.185Z,41.10
2018-07-01T09:37:58.635Z,42.10
2018-07-01T09:40:27.082Z,42.00
2018-07-01T09:45:23.651Z,42.20
2018-07-01T09:47:52.090Z,41.40
2018-07-01T09:50:20.543Z,41.30
2018-07-01T09:52:49.114Z,41.60
2018-07-01T09:55:17.551Z,41.50
2018-07-01T09:57:45.999Z,40.90
2018-07-01T10:00:14.420Z,41.60
2018-07-01T10:05:11.021Z,40.50
2018-07-01T10:07:39.471Z,40.50
2018-07-01T10:10:07.920Z,40.10
2018-07-01T10:12:36.395Z,40.30
2018-07-01T10:15:04.953Z,40.10
2018-07-01T10:17:33.412Z,40.20
2018-07-01T10:20:01.849Z,38.90
2018-07-01T10:22:30.303Z,39.40
2018-07-01T10:24:58.722Z,39.60
2018-07-01T10:29:55.266Z,38.90
2018-07-01T10:34:51.834Z,38.80
2018-07-01T10:39:48.402Z,39.10
2018-07-01T10:42:16.849Z,39.10
2018-07-01T10:44:51.782Z,38.30
2018-07-01T10:47:20.210Z,38.20
2018-07-01T10:49:48.634Z,38.00
2018-07-01T10:52:17.083Z,37.90
2018-07-01T10:54:45.512Z,37.70
2018-07-01T10:57:13.931Z,38.30
2018-07-01T10:59:42.381Z,37.40
2018-07-01T11:02:10.844Z,37.40
2018-07-01T11:04:39.267Z,37.10
2018-07-01T11:07:07.731Z,37.40
2018-07-01T11:09:36.191Z,37.00
2018-07-01T11:12:04.607Z,37.00
2018-07-01T11:14:33.048Z,37.50
2018-07-01T11:17:01.462Z,37.50
2018-07-01T11:19:29.910Z,36.50
2018-07-01T11:21:58.331Z,36.50
2018-07-01T11:24:26.795Z,36.50
2018-07-01T11:29:23.367Z,36.20
2018-07-01T11:31:51.784Z,36.60
2018-07-01T11:34:20.253Z,35.80
2018-07-01T11:36:48.667Z,35.60
2018-07-01T11:39:17.107Z,36.10
2018-07-01T11:41:45.499Z,37.60
2018-07-01T11:44:13.931Z,36.00
2018-07-01T11:46:42.384Z,35.10
2018-07-01T11:49:10.800Z,35.00
2018-07-01T11:54:07.362Z,35.50
2018-07-01T11:56:35.762Z,36.30
2018-07-01T11:59:04.318Z,35.00
2018-07-01T12:01:32.727Z,34.80
2018-07-01T12:04:01.175Z,35.40
2018-07-01T12:06:29.679Z,34.70
2018-07-01T12:08:58.124Z,35.00
2018-07-01T12:13:55.110Z,33.40
2018-07-01T12:16:23.547Z,34.70
2018-07-01T12:18:51.977Z,35.00
2018-07-01T12:21:20.424Z,35.70
2018-07-01T12:23:48.851Z,34.10
2018-07-01T12:26:17.291Z,33.90
2018-07-01T12:31:13.835Z,34.20
2018-07-01T12:33:42.247Z,34.60
2018-07-01T12:36:10.890Z,34.60
2018-07-01T12:38:39.317Z,33.70
2018-07-01T12:41:07.799Z,33.90
2018-07-01T12:43:36.270Z,34.30
2018-07-01T12:46:04.761Z,33.90
2018-07-01T12:48:33.195Z,34.30
2018-07-01T12:51:01.643Z,32.70
2018-07-01T12:53:30.092Z,32.70
2018-07-01T12:55:58.525Z,32.20
2018-07-01T12:58:26.948Z,33.30
2018-07-01T13:00:55.379Z,32.50
2018-07-01T13:03:23.821Z,32.00
2018-07-01T13:05:52.277Z,31.70
2018-07-01T13:08:20.675Z,33.00
2018-07-01T13:10:49.118Z,32.50
2018-07-01T13:13:17.516Z,32.30
2018-07-01T13:15:47.100Z,31.40
2018-07-01T13:18:15.525Z,31.30
2018-07-01T13:20:43.947Z,31.30
2018-07-01T13:23:12.376Z,32.50
2018-07-01T13:28:08.949Z,32.90
2018-07-01T13:30:37.349Z,32.10
2018-07-01T13:33:05.776Z,31.80
2018-07-01T13:35:34.200Z,32.50
2018-07-01T13:38:02.639Z,32.30
2018-07-01T13:40:31.073Z,33.50
2018-07-01T13:42:59.538Z,33.90
2018-07-01T13:45:27.973Z,33.90
2018-07-01T13:47:56.447Z,34.50
2018-07-01T13:50:24.891Z,34.70
2018-07-01T13:52:53.763Z,33.70
2018-07-01T13:55:22.182Z,34.20
2018-07-01T13:57:50.732Z,33.40
2018-07-01T14:00:19.203Z,32.90
2018-07-01T14:02:47.631Z,33.50
2018-07-01T14:07:44.157Z,33.60
2018-07-01T14:10:12.575Z,33.20
2018-07-01T14:12:40.988Z,33.50
2018-07-01T14:15:09.392Z,32.90
2018-07-01T14:17:37.822Z,32.40
2018-07-01T14:20:07.748Z,32.10
2018-07-01T14:22:36.243Z,32.50
2018-07-01T14:25:05.562Z,33.30
2018-07-01T14:27:34.012Z,33.30
2018-07-01T14:30:02.480Z,33.80
2018-07-01T14:32:30.948Z,33.10
2018-07-01T14:34:59.395Z,33.10
2018-07-01T14:37:27.873Z,33.10
2018-07-01T14:39:56.331Z,32.90
2018-07-01T14:42:24.781Z,32.90
2018-07-01T14:44:53.213Z,32.30
2018-07-01T14:47:21.656Z,32.30
2018-07-01T14:49:50.093Z,32.50
2018-07-01T14:52:18.567Z,32.80
2018-07-01T14:54:47.029Z,33.30
2018-07-01T14:57:15.454Z,33.10
2018-07-01T14:59:43.922Z,32.70
2018-07-01T15:02:12.379Z,32.90
2018-07-01T15:04:40.819Z,32.60
2018-07-01T15:07:09.250Z,33.30
2018-07-01T15:09:37.695Z,31.80
2018-07-01T15:14:34.356Z,31.60
2018-07-01T15:17:02.866Z,30.70
2018-07-01T15:19:31.316Z,31.80
2018-07-01T15:21:59.815Z,31.60
2018-07-01T15:24:28.200Z,31.30
2018-07-01T15:26:56.641Z,31.00
2018-07-01T15:29:25.087Z,31.00
2018-07-01T15:31:53.487Z,31.50
2018-07-01T15:34:21.915Z,30.80
2018-07-01T15:36:50.312Z,30.30
2018-07-01T15:39:18.736Z,31.00
2018-07-01T15:41:47.141Z,30.40
2018-07-01T15:44:15.812Z,30.60
2018-07-01T15:46:44.222Z,30.30
2018-07-01T15:49:12.682Z,29.60
2018-07-01T15:51:41.138Z,29.70
2018-07-01T15:54:09.571Z,29.30
2018-07-01T15:56:37.990Z,29.60
2018-07-01T15:59:06.406Z,30.00
2018-07-01T16:01:34.862Z,29.90
2018-07-01T16:04:03.325Z,29.70
2018-07-01T16:06:31.743Z,29.80
2018-07-01T16:09:00.231Z,29.50
2018-07-01T16:13:56.781Z,30.00
2018-07-01T16:18:53.351Z,28.50
2018-07-01T16:21:21.782Z,28.30
2018-07-01T16:23:50.233Z,28.80
2018-07-01T16:26:24.103Z,28.70
2018-07-01T16:31:26.170Z,28.40
2018-07-01T16:33:54.663Z,28.70
2018-07-01T16:36:23.105Z,28.60
2018-07-01T16:38:51.538Z,28.90
2018-07-01T16:41:19.989Z,28.80
2018-07-01T16:43:48.458Z,28.90
2018-07-01T16:46:16.933Z,29.70
2018-07-01T16:48:45.361Z,29.60
2018-07-01T16:51:13.836Z,29.20
2018-07-01T16:56:10.407Z,28.70
2018-07-01T16:58:38.847Z,29.00
2018-07-01T17:01:07.316Z,29.10
2018-07-01T17:03:35.866Z,29.10
2018-07-01T17:06:04.444Z,29.30
2018-07-01T17:08:32.859Z,29.60
2018-07-01T17:11:01.305Z,29.20
2018-07-01T17:13:29.742Z,29.50
2018-07-01T17:15:58.186Z,29.70
2018-07-01T17:18:26.640Z,29.70
2018-07-01T17:20:55.295Z,29.70
2018-07-01T17:23:23.745Z,29.70
2018-07-01T17:25:53.147Z,29.40
2018-07-01T17:28:22.671Z,29.70
2018-07-01T17:30:56.103Z,29.60
2018-07-01T17:33:25.278Z,29.70
2018-07-01T17:35:54.393Z,29.70
2018-07-01T17:38:23.256Z,29.60
2018-07-01T17:40:51.772Z,29.60
2018-07-01T17:43:20.204Z,29.50
2018-07-01T17:45:48.698Z,29.70
2018-07-01T17:48:17.211Z,29.60
2018-07-01T17:50:45.683Z,29.40
2018-07-01T17:55:47.726Z,29.60
2018-07-01T17:58:16.152Z,29.10
2018-07-01T18:00:44.601Z,29.40
2018-07-01T18:03:13.043Z,29.50
2018-07-01T18:05:41.544Z,29.50
2018-07-01T18:08:09.969Z,29.80
2018-07-01T18:10:38.426Z,29.60
2018-07-01T18:13:06.866Z,29.60
2018-07-01T18:15:35.316Z,29.60
2018-07-01T18:20:31.870Z,29.40
2018-07-01T18:25:28.415Z,29.90
2018-07-01T18:30:24.990Z,31.20
2018-07-01T18:32:53.519Z,31.90
2018-07-01T18:35:21.923Z,31.40
2018-07-01T18:37:50.717Z,31.60
2018-07-01T18:40:19.292Z,32.00
2018-07-01T18:42:47.711Z,32.40
2018-07-01T18:45:16.451Z,32.20
2018-07-01T18:47:44.949Z,33.00
2018-07-01T18:50:13.335Z,32.80
2018-07-01T18:52:41.803Z,32.70
2018-07-01T18:55:10.209Z,33.00
2018-07-01T18:57:38.673Z,33.20
2018-07-01T19:02:35.756Z,33.80
2018-07-01T19:05:04.587Z,34.10
2018-07-01T19:07:33.070Z,34.30
2018-07-01T19:10:01.491Z,34.40
2018-07-01T19:12:29.927Z,34.50
2018-07-01T19:14:58.369Z,34.60
2018-07-01T19:17:26.846Z,34.90
2018-07-01T19:19:55.261Z,35.20
2018-07-01T19:22:23.697Z,35.60
2018-07-01T19:24:52.125Z,35.90
2018-07-01T19:27:20.595Z,35.90
2018-07-01T19:29:49.014Z,35.90
2018-07-01T19:32:17.451Z,35.80
2018-07-01T19:34:45.850Z,37.00
2018-07-01T19:37:14.271Z,36.70
2018-07-01T19:39:42.679Z,37.10
2018-07-01T19:42:11.168Z,36.60
2018-07-01T19:44:39.581Z,37.40
2018-07-01T19:47:08.031Z,37.40
2018-07-01T19:49:36.455Z,37.70
2018-07-01T19:52:04.964Z,37.90
2018-07-01T19:54:33.391Z,38.20
2018-07-01T19:57:01.808Z,39.20
2018-07-01T19:59:30.213Z,39.10
2018-07-01T20:01:58.647Z,39.30
2018-07-01T20:04:27.039Z,39.90
2018-07-01T20:06:55.447Z,40.00
2018-07-01T20:09:23.874Z,40.20
2018-07-01T20:11:52.327Z,40.80
2018-07-01T20:14:20.765Z,41.10
2018-07-01T20:16:49.173Z,40.80
2018-07-01T20:21:45.882Z,41.00
2018-07-01T20:24:14.333Z,41.10
2018-07-01T20:26:42.735Z,41.20
2018-07-01T20:29:11.155Z,41.40
2018-07-01T20:31:39.559Z,41.40
2018-07-01T20:34:08.011Z,41.60
2018-07-01T20:36:36.453Z,41.60
2018-07-01T20:39:08.743Z,42.00
2018-07-01T20:41:37.151Z,42.00
2018-07-01T20:44:05.603Z,42.40
2018-07-01T20:46:34.023Z,42.00
2018-07-01T20:49:02.471Z,42.90
2018-07-01T20:51:30.911Z,42.60
2018-07-01T20:53:59.351Z,43.00
2018-07-01T20:56:27.783Z,43.20
2018-07-01T20:58:56.740Z,43.50
2018-07-01T21:01:25.717Z,43.10
2018-07-01T21:06:22.370Z,43.00
2018-07-01T21:08:51.687Z,42.90
2018-07-01T21:11:20.361Z,42.90
2018-07-01T21:16:16.948Z,43.60
2018-07-01T21:18:45.387Z,44.20
2018-07-01T21:21:13.845Z,43.80
2018-07-01T21:23:42.322Z,43.20
2018-07-01T21:26:10.731Z,43.70
2018-07-01T21:28:39.171Z,44.00
2018-07-01T21:31:08.311Z,44.00
2018-07-01T21:33:36.795Z,44.30
2018-07-01T21:36:05.272Z,44.40
2018-07-01T21:38:33.719Z,44.90
2018-07-01T21:41:02.154Z,45.00
2018-07-01T21:43:30.707Z,45.60
2018-07-01T21:45:59.151Z,45.70
2018-07-01T21:48:27.850Z,46.70
2018-07-01T21:50:56.307Z,46.20
2018-07-01T21:53:24.753Z,46.20
2018-07-01T21:55:53.207Z,46.80
2018-07-01T21:58:21.638Z,46.70
2018-07-01T22:00:50.088Z,46.60
2018-07-01T22:05:46.647Z,47.20
2018-07-01T22:10:57.292Z,46.80
2018-07-01T22:14:31.187Z,46.80
2018-07-01T22:16:59.967Z,47.00
2018-07-01T22:19:28.519Z,47.50
2018-07-01T22:24:27.032Z,47.90
2018-07-01T22:26:55.528Z,48.20
2018-07-01T22:29:23.966Z,48.60
2018-07-01T22:31:52.447Z,48.70
2018-07-01T22:34:21.266Z,49.10
2018-07-01T22:36:50.154Z,49.40
2018-07-01T22:39:21.646Z,49.30
2018-07-01T22:41:50.747Z,49.60
2018-07-01T22:44:19.251Z,49.70
2018-07-01T22:46:48.392Z,49.60
2018-07-01T22:49:16.875Z,49.50
2018-07-01T22:51:45.390Z,49.90
2018-07-01T22:54:13.897Z,49.50
2018-07-01T22:56:42.443Z,49.90
2018-07-01T22:59:10.904Z,50.00
2018-07-01T23:03:15.432Z,50.00
2018-07-01T23:05:43.940Z,50.30
2018-07-01T23:08:12.395Z,50.50
2018-07-01T23:10:40.909Z,50.50
2018-07-01T23:15:37.519Z,50.70
2018-07-01T23:20:34.135Z,50.60
2018-07-01T23:23:02.642Z,50.80
2018-07-01T23:25:31.127Z,51.00
2018-07-01T23:27:59.560Z,51.40
2018-07-01T23:30:28.014Z,51.10
2018-07-01T23:32:56.451Z,50.60
2018-07-01T23:35:24.905Z,50.70
2018-07-01T23:37:53.345Z,50.90
2018-07-01T23:40:21.797Z,51.30
2018-07-01T23:42:50.265Z,51.20
2018-07-01T23:45:18.718Z,51.10
2018-07-01T23:47:47.184Z,50.90
2018-07-01T23:50:15.653Z,51.30
2018-07-01T23:52:44.106Z,50.80
2018-07-01T23:55:12.545Z,51.00
2018-07-01T23:57:40.994Z,51.10
